• Join FlightAware (Why Join?)
  • Login
  • US Flag 
09:55AM EST


 

Airport Tracker/Info


-or-


 

Live Flight TrackerFlight Track Log ✈ AAY624 ✈ 13-May-2013 ✈ KSFB - KABE

Flight Track Log - Related Links

Times and Time Zones

All times are in EDT time to prevent confusion due to time zone crossing. See the AAY624 flight status page for this flight to view local times or setup timezone preferences in your user account.

Time Position Orientation Groundspeed Altitude Reporting Facility
EDT Latitude Longitude Course Direction KTS MPH feet Rate Location/Type
09:28AM 28.7833 -81.2500 270° West 165 190 1,000  Level Orlando TRACON
09:30AM 28.7833 -81.3333 270° West 208 239 3,500 2,040 Climbing Orlando TRACON
09:31AM 28.8756 -81.3703 341° North 295 339 7,100 2,280 Climbing Jacksonville Center
09:32AM 28.9508 -81.3764 356° North 292 336 10,000 1,920 Climbing Jacksonville Center
09:33AM 29.0364 -81.3869 354° North 292 336 11,000 720 Climbing Jacksonville Center
09:34AM 29.1408 -81.3947 356° North 333 383 11,500 1,560 Climbing Jacksonville Center
09:35AM 29.2494 -81.4075 354° North 369 425 14,200 2,520 Climbing Jacksonville Center
09:36AM 29.3622 -81.4106 359° North 393 452 16,600 2,040 Climbing Jacksonville Center
09:37AM 29.4753 -81.4278 352° North 399 459 18,300 1,800 Climbing Jacksonville Center
09:38AM 29.5964 -81.4356 357° North 418 481 20,300 1,860 Climbing Jacksonville Center
09:39AM 29.7197 -81.4458 356° North 430 495 22,100 2,040 Climbing Jacksonville Center
09:40AM 29.8408 -81.4606 354° North 435 501 24,400 1,920 Climbing Jacksonville Center
09:41AM 29.9622 -81.4733 355° North 435 501 26,000 1,440 Climbing Jacksonville Center
09:42AM 30.0856 -81.4858 355° North 440 506 27,300 1,440 Climbing Jacksonville Center
09:43AM 30.2067 -81.4986 355° North 440 506 28,900 1,380 Climbing Jacksonville Center
09:44AM 30.3300 -81.5111 355° North 440 506 30,100 1,200 Climbing Jacksonville Center
09:45AM 30.4719 -81.4994 North 445 512 31,300 1,020 Climbing Jacksonville Center
09:46AM 30.5992 -81.4903 North 455 524 32,200 780 Climbing Jacksonville Center
09:47AM 30.7242 -81.4814 North 455 524 32,900 360 Climbing Jacksonville Center
09:48AM 30.8517 -81.4697 North 461 531 33,000  Climbing Jacksonville Center
09:49AM 30.9789 -81.4606 North 461 531 32,900 -60 Descending Jacksonville Center
09:50AM 31.1061 -81.4514 North 461 531 32,900  Level Jacksonville Center
09:51AM 31.2333 -81.4372 North 455 524 33,000  Climbing Jacksonville Center
09:52AM 31.3583 -81.4158 North 460 529 33,000  Level Jacksonville Center
09:53AM 31.4708 -81.4019 North 460 529 33,000  Level Jacksonville Center
09:54AM 31.6125 -81.3825 North 460 529 33,000  Level Jacksonville Center
09:55AM 31.7419 -81.3633 North 460 529 33,000  Level Jacksonville Center
09:56AM 31.8586 -81.3467 North 465 535 33,000 -60 Level Jacksonville Center
09:57AM 31.9858 -81.3297 North 465 535 32,900 -60 Descending Jacksonville Center
09:58AM 32.1128 -81.3106 North 460 529 32,900  Level Jacksonville Center
09:59AM 32.2358 -81.2936 North 455 524 32,900  Level Jacksonville Center
10:00AM 32.3650 -81.2742 North 455 524 33,000  Climbing Jacksonville Center
10:01AM 32.5025 -81.2569 North 455 524 33,000  Level Jacksonville Center
10:02AM 32.6172 -81.2400 North 460 529 33,000 -60 Level Jacksonville Center
10:03AM 32.7442 -81.2206 North 466 536 32,900 -60 Descending Jacksonville Center
10:04AM 32.8756 -81.1983 North 466 536 32,900  Level Jacksonville Center
10:05AM 33.0042 -81.1511 17° North 467 537 32,900  Level Jacksonville Center
10:06AM 33.1369 -81.0992 18° North 477 549 32,900  Level Jacksonville Center
10:07AM 33.2678 -81.0492 18° North 487 560 33,000  Climbing Jacksonville Center
10:08AM 33.4028 -81.0017 16° North 493 567 32,900 -60 Descending Jacksonville Center
10:09AM 33.5356 -80.9489 18° North 493 567 32,900  Level Jacksonville Center
10:10AM 33.6642 -80.9011 17° North 493 567 33,000  Climbing Jacksonville Center
10:11AM 33.7950 -80.8533 17° North 493 567 32,900 -60 Descending Jacksonville Center
10:12AM 33.9275 -80.8028 18° North 493 567 32,900  Level Jacksonville Center
10:13AM 34.0583 -80.7544 17° North 493 567 32,900  Level Jacksonville Center
10:14AM 34.1889 -80.7036 18° North 493 567 33,000  Climbing Jacksonville Center
10:16AM 34.4683 -80.5997 17° North 505 581 33,000  Level Atlanta Center
10:17AM 34.5961 -80.5489 18° North 493 567 33,000  Level Atlanta Center
10:18AM 34.7283 -80.4981 18° North 493 567 33,000  Level Atlanta Center
10:19AM 34.8583 -80.4469 18° North 488 562 33,000  Level Atlanta Center
10:20AM 34.9903 -80.3931 18° North 488 562 33,000  Level Atlanta Center
10:21AM 35.1181 -80.3442 17° North 488 562 33,000  Level Atlanta Center
10:22AM 35.2500 -80.2925 18° North 488 562 33,000  Level Atlanta Center
10:23AM 35.3800 -80.2408 18° North 489 563 33,000  Level Atlanta Center
10:24AM 35.5097 -80.1914 17° North 489 563 33,000  Level Atlanta Center
10:25AM 35.6397 -80.1394 18° North 489 563 33,000  Level Atlanta Center
10:27AM 35.8408 -80.0633 17° North 505 581 33,000  Level Washington Center
10:28AM 35.9722 -80.0142 17° North 494 568 33,000  Level Washington Center
10:29AM 36.0975 -79.9544 21° North 488 562 33,000  Level Washington Center
10:30AM 36.2211 -79.8764 27° Northeast 482 555 33,000  Level Washington Center
10:31AM 36.3450 -79.8006 26° Northeast 487 560 33,000  Level Washington Center
10:32AM 36.4667 -79.7244 27° Northeast 487 560 33,000  Level Washington Center
10:33AM 36.5881 -79.6481 27° Northeast 487 560 33,000  Level Washington Center
10:34AM 36.7139 -79.5717 26° Northeast 487 560 33,000 -360 Level Washington Center
10:35AM 36.8522 -79.4881 26° Northeast 492 566 32,300 -840 Descending Washington Center
10:36AM 36.9736 -79.4108 27° Northeast 492 566 31,300 -960 Descending Washington Center
10:37AM 37.0992 -79.3314 27° Northeast 492 566 30,400 -1,020 Descending Washington Center
10:38AM 37.2139 -79.2611 26° Northeast 497 572 29,400 -720 Descending Washington Center
10:39AM 37.3375 -79.1808 27° Northeast 497 572 29,000 -240 Descending Washington Center
10:40AM 37.4628 -79.1031 26° Northeast 497 572 29,000  Level Washington Center
10:41AM 37.6008 -79.0178 26° Northeast 497 572 29,000 -300 Level Washington Center
10:42AM 37.7261 -78.9369 27° Northeast 497 572 28,400 -660 Descending Washington Center
10:43AM 37.8514 -78.8608 26° Northeast 497 572 27,700 -720 Descending Washington Center
10:44AM 37.9575 -78.7944 26° Northeast 492 566 27,000 -360 Descending Washington Center
10:45AM 38.0783 -78.7150 27° Northeast 487 560 27,000  Level Washington Center
10:46AM 38.1972 -78.6408 26° Northeast 482 555 27,000  Level Washington Center
10:47AM 38.3286 -78.5533 28° Northeast 482 555 27,000  Level Washington Center
10:48AM 38.4494 -78.4733 27° Northeast 482 555 27,000 -540 Level Washington Center
10:49AM 38.5700 -78.3958 27° Northeast 482 555 26,000 -1,440 Descending Washington Center
10:50AM 38.6867 -78.3178 28° Northeast 477 549 24,200 -2,040 Descending Washington Center
10:51AM 38.8072 -78.2369 28° Northeast 477 549 22,100 -1,980 Descending Washington Center
10:52AM 38.9128 -78.1689 27° Northeast 477 549 20,300 -1,440 Descending Washington Center
10:53AM 39.0269 -78.1006 25° Northeast 472 543 19,200 -660 Descending Washington Center
10:54AM 39.1303 -78.0372 25° Northeast 434 499 19,000 -120 Descending Washington Center
10:55AM 39.2197 -77.9439 39° Northeast 416 479 19,000  Level Washington Center
10:56AM 39.3092 -77.8447 41° Northeast 416 479 19,000  Level Washington Center
10:58AM 39.5200 -77.7367 22° Northeast 405 466 19,000  Level New York Center
10:59AM 39.6272 -77.6853 20° North 405 466 19,000  Level New York Center
11:00AM 39.7306 -77.6278 23° Northeast 400 460 19,000  Level New York Center
11:01AM 39.7894 -77.5147 56° Northeast 395 455 19,000  Level New York Center
11:02AM 39.8539 -77.3694 60° Northeast 406 467 19,000  Level New York Center
11:03AM 39.9086 -77.2472 60° Northeast 427 491 19,000  Level New York Center
11:04AM 39.9731 -77.0961 61° Northeast 427 491 19,000  Level New York Center
11:05AM 40.0256 -76.9708 61° Northeast 427 491 19,000  Level New York Center
11:06AM 40.0875 -76.8242 61° Northeast 421 484 19,000 -300 Level New York Center
11:07AM 40.1394 -76.7011 61° Northeast 421 484 18,400 -600 Descending New York Center
11:08AM 40.2008 -76.5569 61° Northeast 421 484 17,800 -600 Descending New York Center
11:09AM 40.2486 -76.4358 63° Northeast 415 478 17,200 -660 Descending New York Center
11:10AM 40.3094 -76.2911 61° Northeast 415 478 16,500 -840 Descending New York Center
11:11AM 40.3633 -76.1617 61° Northeast 403 464 15,600 -960 Descending New York Center
11:12AM 40.4131 -76.0347 63° Northeast 403 464 14,700 -1,200 Descending New York Center
11:13AM 40.4597 -75.9211 62° Northeast 403 464 13,300 -1,560 Descending New York Center
11:14AM 40.5053 -75.7797 67° East 390 449 11,600 -1,500 Descending New York Center
11:15AM 40.5250 -75.6556 78° East 367 422 10,400 -1,200 Descending New York Center
11:16AM 40.5422 -75.5419 79° East 336 387 9,300 -1,440 Descending New York Center
11:17AM 40.5572 -75.4311 80° East 309 356 7,500 -1,740 Descending New York Center
11:18AM 40.5817 -75.3344 72° East 296 341 5,900 -1,740 Descending New York Center
11:19AM 40.6400 -75.2836 33° Northeast 246 283 4,000 -1,620 Descending New York Center
11:20AM 40.6956 -75.2981 349° North 199 229 2,800 -960 Descending New York Center
11:21AM 40.7169 -75.3381 305° West 151 174 2,200 -660 Descending New York Center
11:22AM 40.6928 -75.3747 229° Southwest 111 128 1,500 -360 Descending New York Center
11:23AM 40.6933 -75.4131 271° West 111 128 1,500 3,660 Level New York Center
11:24AM 40.6875 -75.4536 259° West 111 128 9,000 3,780 Climbing New York Center
11:25AM 40.6797 -75.4942 256° West 111 128 9,000  Level New York Center